Time;durP1;ratioP1;P1;durP2;ratioP2;P2;SDS_P1;SDS_P2;PMS_P1;PMS_P2;Temp;Humidity;BMP_temperature;BMP_pressure;BME280_temperature;BME280_humidity;BME280_pressure;Samples;Min_cycle;Max_cycle;Signal;HPM_P1;HPM_P2
2022/12/04 00:01:24;;;;;;;;;;;13.10;91.80;;;;;;4594050;19;19923;-22
2022/12/04 00:02:55;;;;;;;;;;;13.10;91.80;;;;;;4593414;19;20435;-26
2022/12/04 00:04:26;;;;;;;;;;;13.10;91.90;;;;;;4592159;19;19925;-22
2022/12/04 00:06:11;;;;;;;;;;;13.10;91.90;;;;;;4593019;19;19923;-23
2022/12/04 00:07:45;;;;;;;;;;;13.10;91.90;;;;;;4593168;19;20304;-23
2022/12/04 00:09:17;;;;;;;;;;;13.10;91.90;;;;;;4593479;19;19915;-23
2022/12/04 00:10:49;;;;;;;;;;;13.10;91.90;;;;;;4592594;19;19948;-22
2022/12/04 00:12:20;;;;;;;;;;;13.10;91.90;;;;;;4593369;19;20271;-22
2022/12/04 00:13:51;;;;;;;;;;;13.10;92.00;;;;;;4591931;19;19978;-22
2022/12/04 00:15:22;;;;;;;;;;;13.10;92.00;;;;;;4593273;19;19919;-22
2022/12/04 00:16:55;;;;;;;;;;;13.20;92.00;;;;;;4592992;19;19989;-22
2022/12/04 00:18:26;;;;;;;;;;;13.10;92.00;;;;;;4593433;19;20282;-23
2022/12/04 00:19:58;;;;;;;;;;;13.10;92.00;;;;;;4592970;19;19936;-22
2022/12/04 00:21:29;;;;;;;;;;;13.10;92.00;;;;;;4593348;19;19911;-21
2022/12/04 00:23:01;;;;;;;;;;;13.10;92.10;;;;;;4591696;19;19915;-23
2022/12/04 00:24:33;;;;;;;;;;;13.10;92.10;;;;;;4592799;19;20341;-23
2022/12/04 00:26:06;;;;;;;;;;;13.20;92.10;;;;;;4591812;19;19919;-22
2022/12/04 00:27:39;;;;;;;;;;;13.20;92.10;;;;;;4591641;19;19919;-22
2022/12/04 00:29:11;;;;;;;;;;;13.10;92.10;;;;;;4592881;19;19923;-22
2022/12/04 00:30:45;;;;;;;;;;;13.10;92.30;;;;;;4592759;19;19922;-23
2022/12/04 00:32:16;;;;;;;;;;;13.10;92.10;;;;;;4592624;19;20329;-23
2022/12/04 00:33:47;;;;;;;;;;;13.20;92.20;;;;;;4591900;19;19934;-22
2022/12/04 00:35:19;;;;;;;;;;;13.10;92.20;;;;;;4592211;19;19931;-22
2022/12/04 00:36:50;;;;;;;;;;;13.10;92.20;;;;;;4592832;19;19923;-22
2022/12/04 00:38:23;;;;;;;;;;;13.10;92.20;;;;;;4592747;19;20314;-22
2022/12/04 00:39:54;;;;;;;;;;;13.10;92.20;;;;;;4592730;19;20317;-23
2022/12/04 00:41:26;;;;;;;;;;;13.10;92.20;;;;;;4592791;19;19919;-22
2022/12/04 00:42:57;;;;;;;;;;;13.10;92.20;;;;;;4591131;19;19915;-22
2022/12/04 00:44:29;;;;;;;;;;;13.10;92.30;;;;;;4592963;19;19935;-22
2022/12/04 00:46:00;;;;;;;;;;;13.10;92.20;;;;;;4592471;19;19919;-22
2022/12/04 00:47:32;;;;;;;;;;;13.10;92.20;;;;;;4592463;19;19926;-23
2022/12/04 00:49:04;;;;;;;;;;;13.10;92.20;;;;;;4591447;19;19927;-22
2022/12/04 00:50:35;;;;;;;;;;;13.10;92.20;;;;;;4591866;19;19911;-22
2022/12/04 00:52:07;;;;;;;;;;;13.10;92.20;;;;;;4591518;19;19930;-22
2022/12/04 00:53:39;;;;;;;;;;;13.10;92.30;;;;;;4591917;19;19970;-22
2022/12/04 00:55:11;;;;;;;;;;;13.10;92.50;;;;;;4591142;19;19918;-22
2022/12/04 00:56:42;;;;;;;;;;;13.10;92.30;;;;;;4592250;19;19915;-22
2022/12/04 00:58:13;;;;;;;;;;;13.10;92.30;;;;;;4592185;19;19930;-22
2022/12/04 00:59:44;;;;;;;;;;;13.10;92.30;;;;;;4592346;19;19922;-22
2022/12/04 01:01:17;;;;;;;;;;;13.10;92.30;;;;;;4592848;19;19922;-22
2022/12/04 01:02:48;;;;;;;;;;;13.10;92.40;;;;;;4591825;19;20338;-22
2022/12/04 01:04:19;;;;;;;;;;;13.10;92.40;;;;;;4592288;19;19922;-22
2022/12/04 01:05:51;;;;;;;;;;;13.10;92.40;;;;;;4592244;19;19986;-23
2022/12/04 01:07:22;;;;;;;;;;;13.10;92.60;;;;;;4592410;19;20376;-24
2022/12/04 01:08:53;;;;;;;;;;;13.10;92.40;;;;;;4591954;19;19915;-23
2022/12/04 01:10:26;;;;;;;;;;;13.10;92.40;;;;;;4591921;19;19918;-22
2022/12/04 01:11:59;;;;;;;;;;;13.10;92.40;;;;;;4591855;19;19975;-23
2022/12/04 01:13:30;;;;;;;;;;;13.10;92.40;;;;;;4592320;19;19950;-22
2022/12/04 01:15:01;;;;;;;;;;;13.10;92.40;;;;;;4591828;19;19919;-22
2022/12/04 01:16:34;;;;;;;;;;;13.10;92.40;;;;;;4591650;19;19943;-22
2022/12/04 01:18:05;;;;;;;;;;;13.10;92.40;;;;;;4592527;19;20233;-22
2022/12/04 01:19:36;;;;;;;;;;;13.10;92.40;;;;;;4591715;19;19915;-22
2022/12/04 01:21:07;;;;;;;;;;;13.10;92.40;;;;;;4591894;19;19955;-24
2022/12/04 01:22:38;;;;;;;;;;;13.10;92.40;;;;;;4591886;19;20534;-23
2022/12/04 01:24:09;;;;;;;;;;;13.10;92.50;;;;;;4592001;19;20284;-22
2022/12/04 01:25:48;;;;;;;;;;;13.10;92.70;;;;;;4591705;19;19911;-22
2022/12/04 01:27:19;;;;;;;;;;;13.10;92.40;;;;;;4591596;19;19918;-23
2022/12/04 01:28:50;;;;;;;;;;;13.10;92.40;;;;;;4591839;19;19926;-22
2022/12/04 01:30:22;;;;;;;;;;;13.10;92.40;;;;;;4592015;19;19962;-23
2022/12/04 01:31:53;;;;;;;;;;;13.10;92.40;;;;;;4590379;19;19915;-22
2022/12/04 01:33:26;;;;;;;;;;;13.10;92.50;;;;;;4591926;19;19919;-22
2022/12/04 01:34:59;;;;;;;;;;;13.10;92.50;;;;;;4591422;19;19918;-26
2022/12/04 01:36:30;;;;;;;;;;;13.10;92.50;;;;;;4591526;19;19936;-21
2022/12/04 01:38:02;;;;;;;;;;;13.10;92.50;;;;;;4590850;19;20284;-22
2022/12/04 01:39:34;;;;;;;;;;;13.10;92.50;;;;;;4591550;19;19923;-22
2022/12/04 01:41:05;;;;;;;;;;;13.10;92.50;;;;;;4590661;19;19943;-22
2022/12/04 01:42:38;;;;;;;;;;;13.10;92.60;;;;;;4590971;19;19947;-24
2022/12/04 01:44:10;;;;;;;;;;;13.10;92.50;;;;;;4590055;19;19926;-22
2022/12/04 01:45:46;;;;;;;;;;;13.10;92.50;;;;;;4591449;19;19915;-23
2022/12/04 01:47:17;;;;;;;;;;;13.10;92.50;;;;;;4592115;19;19923;-23
2022/12/04 01:48:49;;;;;;;;;;;13.10;92.50;;;;;;4591488;19;19915;-22
2022/12/04 01:50:20;;;;;;;;;;;13.10;92.60;;;;;;4590277;19;19930;-22
2022/12/04 01:51:53;;;;;;;;;;;13.10;92.60;;;;;;4590003;19;19921;-24
2022/12/04 01:53:24;;;;;;;;;;;13.10;92.60;;;;;;4590634;19;19938;-23
2022/12/04 01:54:56;;;;;;;;;;;13.10;92.60;;;;;;4589993;19;19919;-22
2022/12/04 01:56:46;;;;;;;;;;;13.10;92.60;;;;;;4591489;19;20004;-24
2022/12/04 01:58:17;;;;;;;;;;;13.10;92.60;;;;;;4591238;19;19921;-22
2022/12/04 01:59:52;;;;;;;;;;;13.10;92.60;;;;;;4590340;19;19978;-23
2022/12/04 02:01:24;;;;;;;;;;;13.10;92.60;;;;;;4590000;19;19922;-22
2022/12/04 02:02:57;;;;;;;;;;;13.10;92.60;;;;;;4590738;19;19911;-21
2022/12/04 02:04:28;;;;;;;;;;;13.10;92.60;;;;;;4590910;19;19919;-22
2022/12/04 02:06:00;;;;;;;;;;;13.00;92.60;;;;;;4590195;19;19915;-22
2022/12/04 02:07:33;;;;;;;;;;;13.10;92.70;;;;;;4590809;19;19915;-22
2022/12/04 02:09:04;;;;;;;;;;;13.10;92.70;;;;;;4589804;19;19932;-22
2022/12/04 02:10:46;;;;;;;;;;;13.10;92.70;;;;;;4590340;19;19915;-23
2022/12/04 02:12:31;;;;;;;;;;;13.10;92.60;;;;;;4590748;19;19933;-22
2022/12/04 02:14:11;;;;;;;;;;;13.10;92.70;;;;;;4590431;19;20373;-22
2022/12/04 02:15:53;;;;;;;;;;;13.10;92.70;;;;;;4590879;19;20314;-22
2022/12/04 02:17:27;;;;;;;;;;;13.10;92.70;;;;;;4589549;19;20390;-22
2022/12/04 02:19:17;;;;;;;;;;;13.00;92.70;;;;;;4590601;19;19923;-22
2022/12/04 02:20:48;;;;;;;;;;;13.00;92.70;;;;;;4590992;19;20266;-22
2022/12/04 02:22:29;;;;;;;;;;;13.10;92.70;;;;;;4591402;19;19915;-22
2022/12/04 02:24:21;;;;;;;;;;;13.10;92.80;;;;;;4590206;19;19915;-22
2022/12/04 02:25:58;;;;;;;;;;;13.00;92.70;;;;;;4590689;19;19947;-22
2022/12/04 02:27:50;;;;;;;;;;;13.00;92.70;;;;;;4590794;19;19921;-21
2022/12/04 02:29:22;;;;;;;;;;;13.00;92.70;;;;;;4590451;19;19932;-23
2022/12/04 02:30:55;;;;;;;;;;;13.10;93.00;;;;;;4590459;19;20275;-23
2022/12/04 02:32:47;;;;;;;;;;;13.10;92.70;;;;;;4589333;19;19923;-23
2022/12/04 02:34:28;;;;;;;;;;;13.00;92.70;;;;;;4590297;19;19918;-22
2022/12/04 02:36:01;;;;;;;;;;;13.00;92.70;;;;;;4589464;19;19932;-22
2022/12/04 02:37:53;;;;;;;;;;;13.10;92.80;;;;;;4590073;19;19915;-22
2022/12/04 02:39:26;;;;;;;;;;;13.00;92.80;;;;;;4588098;19;19943;-23
2022/12/04 02:41:07;;;;;;;;;;;13.10;92.80;;;;;;4589982;19;19963;-22
2022/12/04 02:42:39;;;;;;;;;;;13.00;92.80;;;;;;4590094;19;20265;-23
2022/12/04 02:44:10;;;;;;;;;;;13.00;92.80;;;;;;4589079;19;19997;-22
2022/12/04 02:45:45;;;;;;;;;;;13.00;92.80;;;;;;4589708;19;20258;-22
2022/12/04 02:47:17;;;;;;;;;;;13.00;92.80;;;;;;4589961;19;19991;-22
2022/12/04 02:48:48;;;;;;;;;;;13.00;92.80;;;;;;4590088;19;19922;-22
2022/12/04 02:50:21;;;;;;;;;;;13.00;92.80;;;;;;4591150;19;19970;-22
2022/12/04 02:51:52;;;;;;;;;;;13.00;92.80;;;;;;4592320;19;20293;-22
2022/12/04 02:53:25;;;;;;;;;;;13.00;92.80;;;;;;4593598;19;19939;-22
2022/12/04 02:54:57;;;;;;;;;;;13.00;92.80;;;;;;4593758;19;19923;-24
2022/12/04 02:56:29;;;;;;;;;;;13.00;92.80;;;;;;4593674;19;19911;-22
2022/12/04 02:58:03;;;;;;;;;;;13.00;92.80;;;;;;4593751;19;19943;-23
2022/12/04 02:59:35;;;;;;;;;;;13.00;92.80;;;;;;4594235;19;20337;-22
2022/12/04 03:01:18;;;;;;;;;;;13.00;92.90;;;;;;4594850;19;19918;-22
2022/12/04 03:02:55;;;;;;;;;;;13.00;92.80;;;;;;4593706;19;19914;-24
2022/12/04 03:04:27;;;;;;;;;;;13.00;92.80;;;;;;4593836;19;19978;-22
2022/12/04 03:05:58;;;;;;;;;;;13.00;92.90;;;;;;4594088;19;19919;-22
2022/12/04 03:07:30;;;;;;;;;;;13.00;92.90;;;;;;4593967;19;20328;-22
2022/12/04 03:09:04;;;;;;;;;;;13.00;92.90;;;;;;4593754;19;19915;-21
2022/12/04 03:10:37;;;;;;;;;;;13.00;92.90;;;;;;4594174;19;19974;-22
2022/12/04 03:12:14;;;;;;;;;;;13.00;92.90;;;;;;4593464;19;19935;-22
2022/12/04 03:13:53;;;;;;;;;;;13.00;92.90;;;;;;4593183;19;19996;-23
2022/12/04 03:15:24;;;;;;;;;;;13.00;92.90;;;;;;4593354;19;19952;-22
2022/12/04 03:16:57;;;;;;;;;;;13.00;92.90;;;;;;4593592;19;19911;-23
2022/12/04 03:18:51;;;;;;;;;;;13.00;92.90;;;;;;4594736;19;19934;-24
2022/12/04 03:20:22;;;;;;;;;;;13.00;92.90;;;;;;4593193;19;20337;-22
2022/12/04 03:21:56;;;;;;;;;;;13.00;92.90;;;;;;4594004;19;19938;-22
2022/12/04 03:23:36;;;;;;;;;;;13.00;92.90;;;;;;4593678;19;19915;-22
2022/12/04 03:25:08;;;;;;;;;;;13.00;92.90;;;;;;4593165;19;19927;-22
2022/12/04 03:26:44;;;;;;;;;;;13.00;92.90;;;;;;4593547;19;19914;-22
2022/12/04 03:28:24;;;;;;;;;;;13.00;92.90;;;;;;4594241;19;20253;-24
2022/12/04 03:29:57;;;;;;;;;;;13.00;92.90;;;;;;4593699;19;20241;-22
2022/12/04 03:31:43;;;;;;;;;;;13.00;92.90;;;;;;4592950;19;19929;-23
2022/12/04 03:33:15;;;;;;;;;;;13.00;93.00;;;;;;4593131;19;19982;-23
2022/12/04 03:34:50;;;;;;;;;;;13.00;92.90;;;;;;4593514;19;19919;-22
2022/12/04 03:36:26;;;;;;;;;;;13.00;92.90;;;;;;4593114;19;19918;-22
2022/12/04 03:37:58;;;;;;;;;;;13.10;92.90;;;;;;4593942;19;19915;-23
2022/12/04 03:39:35;;;;;;;;;;;13.00;92.90;;;;;;4592337;19;19925;-22
2022/12/04 03:41:26;;;;;;;;;;;13.00;92.90;;;;;;4592847;19;19970;-22
2022/12/04 03:43:02;;;;;;;;;;;13.00;92.90;;;;;;4593750;19;19914;-23
2022/12/04 03:44:36;;;;;;;;;;;13.00;92.90;;;;;;4594105;19;19933;-24
2022/12/04 03:46:10;;;;;;;;;;;13.00;92.90;;;;;;4594260;19;19923;-24
2022/12/04 03:47:42;;;;;;;;;;;13.00;92.90;;;;;;4593722;19;20245;-22
2022/12/04 03:49:19;;;;;;;;;;;13.00;92.90;;;;;;4593471;19;19950;-22
2022/12/04 03:50:50;;;;;;;;;;;13.00;92.90;;;;;;4592037;19;19978;-22
2022/12/04 03:52:34;;;;;;;;;;;13.00;92.90;;;;;;4593625;19;19922;-23
2022/12/04 03:54:25;;;;;;;;;;;13.00;92.90;;;;;;4594182;19;19930;-24
2022/12/04 03:56:01;;;;;;;;;;;13.00;92.90;;;;;;4592875;19;19923;-22
2022/12/04 03:57:33;;;;;;;;;;;13.00;93.00;;;;;;4592297;19;19914;-24
2022/12/04 03:59:08;;;;;;;;;;;13.00;92.90;;;;;;4592671;19;19915;-22
2022/12/04 04:00:40;;;;;;;;;;;13.00;93.00;;;;;;4592274;19;19919;-24
2022/12/04 04:02:13;;;;;;;;;;;13.00;93.00;;;;;;4589680;19;19926;-26
2022/12/04 04:03:45;;;;;;;;;;;13.00;93.00;;;;;;4592388;19;19923;-23
2022/12/04 04:05:16;;;;;;;;;;;13.00;93.00;;;;;;4593245;19;19919;-23
2022/12/04 04:06:51;;;;;;;;;;;13.00;93.00;;;;;;4593976;19;19923;-22
2022/12/04 04:08:26;;;;;;;;;;;13.00;93.00;;;;;;4593180;19;19918;-21
2022/12/04 04:09:57;;;;;;;;;;;13.00;93.00;;;;;;4593279;19;20361;-22
2022/12/04 04:11:42;;;;;;;;;;;13.00;93.10;;;;;;4591331;19;19919;-22
2022/12/04 04:24:25;;;;;;;;;;;13.00;93.10;;;;;;4593340;19;19974;-23
2022/12/04 04:25:56;;;;;;;;;;;13.00;93.10;;;;;;4593056;19;19925;-22
2022/12/04 04:27:28;;;;;;;;;;;13.00;93.10;;;;;;4593273;19;19915;-23
2022/12/04 04:28:59;;;;;;;;;;;13.00;93.10;;;;;;4592620;19;19915;-22
2022/12/04 04:30:30;;;;;;;;;;;13.00;93.10;;;;;;4593251;19;19919;-25
2022/12/04 04:32:01;;;;;;;;;;;13.00;93.10;;;;;;4591717;19;20270;-22
2022/12/04 04:33:33;;;;;;;;;;;13.00;93.10;;;;;;4592965;19;19919;-22
2022/12/04 04:35:14;;;;;;;;;;;13.00;93.10;;;;;;4591663;19;19960;-22
2022/12/04 04:36:48;;;;;;;;;;;13.00;93.10;;;;;;4590417;19;19953;-22
2022/12/04 04:38:24;;;;;;;;;;;13.00;93.20;;;;;;4591332;19;19943;-22
2022/12/04 04:39:57;;;;;;;;;;;13.00;93.20;;;;;;4592688;19;20440;-22
2022/12/04 04:41:47;;;;;;;;;;;13.00;93.20;;;;;;4591425;19;19922;-22
2022/12/04 04:43:25;;;;;;;;;;;13.00;93.20;;;;;;4592307;19;19978;-22
2022/12/04 04:44:58;;;;;;;;;;;13.00;93.20;;;;;;4591907;19;19915;-23
2022/12/04 04:46:31;;;;;;;;;;;12.90;93.20;;;;;;4592726;19;19914;-22
2022/12/04 04:48:03;;;;;;;;;;;13.00;93.20;;;;;;4591579;19;20006;-22
2022/12/04 04:49:34;;;;;;;;;;;13.00;93.20;;;;;;4590856;19;20333;-22
2022/12/04 04:51:05;;;;;;;;;;;13.00;93.20;;;;;;4590859;19;20378;-23
2022/12/04 04:52:37;;;;;;;;;;;13.00;93.20;;;;;;4591430;19;20341;-22
2022/12/04 04:54:09;;;;;;;;;;;13.00;93.20;;;;;;4590883;19;19922;-22
2022/12/04 04:55:40;;;;;;;;;;;12.90;93.20;;;;;;4591400;19;19960;-22
2022/12/04 04:57:11;;;;;;;;;;;13.00;93.20;;;;;;4590809;19;19918;-22
2022/12/04 04:58:42;;;;;;;;;;;12.90;93.20;;;;;;4591786;19;19970;-22
2022/12/04 05:00:14;;;;;;;;;;;12.90;93.20;;;;;;4591034;19;19978;-23
2022/12/04 05:01:45;;;;;;;;;;;12.90;93.20;;;;;;4591209;19;19977;-23
2022/12/04 05:03:16;;;;;;;;;;;12.90;93.20;;;;;;4592060;19;19914;-22
2022/12/04 05:04:47;;;;;;;;;;;12.90;93.20;;;;;;4592444;19;20333;-25
2022/12/04 05:06:18;;;;;;;;;;;12.90;93.40;;;;;;4591920;19;19939;-23
2022/12/04 05:07:50;;;;;;;;;;;12.90;93.20;;;;;;4591774;19;19974;-22
2022/12/04 05:09:21;;;;;;;;;;;13.00;93.30;;;;;;4592669;19;19940;-22
2022/12/04 05:10:53;;;;;;;;;;;13.00;93.30;;;;;;4592066;19;19934;-23
2022/12/04 05:12:25;;;;;;;;;;;12.90;93.20;;;;;;4591749;19;20330;-22
2022/12/04 05:13:57;;;;;;;;;;;12.90;93.30;;;;;;4591652;19;19919;-25
2022/12/04 05:15:28;;;;;;;;;;;12.90;93.30;;;;;;4590872;19;19943;-22
2022/12/04 05:16:59;;;;;;;;;;;12.90;93.30;;;;;;4591470;19;19982;-26
2022/12/04 05:18:30;;;;;;;;;;;12.90;93.30;;;;;;4592223;19;20306;-22
2022/12/04 05:20:04;;;;;;;;;;;12.90;93.50;;;;;;4592305;19;19910;-22
2022/12/04 05:21:35;;;;;;;;;;;12.90;93.30;;;;;;4591698;19;20256;-22
2022/12/04 05:23:06;;;;;;;;;;;12.90;93.30;;;;;;4591472;19;19915;-24
2022/12/04 05:24:37;;;;;;;;;;;12.90;93.30;;;;;;4591864;19;19926;-22
2022/12/04 05:26:08;;;;;;;;;;;12.90;93.30;;;;;;4592102;19;20321;-23
2022/12/04 05:27:41;;;;;;;;;;;12.90;93.30;;;;;;4592391;19;19926;-23
2022/12/04 05:29:12;;;;;;;;;;;12.90;93.30;;;;;;4591565;19;20336;-22
2022/12/04 05:30:43;;;;;;;;;;;12.90;93.30;;;;;;4591804;19;19915;-22
2022/12/04 05:32:14;;;;;;;;;;;12.90;93.30;;;;;;4593001;19;20342;-23
2022/12/04 05:33:45;;;;;;;;;;;13.00;93.30;;;;;;4591581;19;19915;-22
2022/12/04 05:35:16;;;;;;;;;;;13.00;93.20;;;;;;4591494;19;20348;-23
2022/12/04 05:36:47;;;;;;;;;;;13.00;93.20;;;;;;4592025;19;19915;-22
2022/12/04 05:38:18;;;;;;;;;;;13.10;93.20;;;;;;4590301;19;19929;-22
2022/12/04 05:39:49;;;;;;;;;;;13.10;93.10;;;;;;4590957;19;19915;-23
2022/12/04 05:41:21;;;;;;;;;;;13.20;93.30;;;;;;4591796;19;19929;-23
2022/12/04 05:42:52;;;;;;;;;;;13.20;93.00;;;;;;4592471;19;20238;-23
2022/12/04 05:44:23;;;;;;;;;;;13.20;93.00;;;;;;4593800;19;19960;-22
2022/12/04 05:45:54;;;;;;;;;;;13.20;93.00;;;;;;4591324;19;19926;-22
2022/12/04 05:47:25;;;;;;;;;;;13.20;93.00;;;;;;4591300;19;20167;-22
2022/12/04 05:48:56;;;;;;;;;;;13.20;93.00;;;;;;4593082;19;19951;-22
2022/12/04 05:50:27;;;;;;;;;;;13.20;93.00;;;;;;4591480;19;19943;-22
2022/12/04 05:51:58;;;;;;;;;;;13.20;93.20;;;;;;4590471;19;19923;-23
2022/12/04 05:53:29;;;;;;;;;;;13.20;93.00;;;;;;4590092;19;19919;-23
2022/12/04 05:55:01;;;;;;;;;;;13.20;93.00;;;;;;4591844;19;19929;-22
2022/12/04 05:56:33;;;;;;;;;;;13.20;93.00;;;;;;4590595;19;19939;-23
2022/12/04 05:58:03;;;;;;;;;;;13.20;93.00;;;;;;4591266;19;19919;-22
2022/12/04 05:59:35;;;;;;;;;;;13.10;93.00;;;;;;4590556;19;19918;-22
2022/12/04 06:01:09;;;;;;;;;;;13.10;93.30;;;;;;4589847;19;19915;-22
2022/12/04 06:02:40;;;;;;;;;;;13.10;93.00;;;;;;4591715;19;19919;-21
2022/12/04 06:04:12;;;;;;;;;;;13.10;93.10;;;;;;4587217;19;19922;-23
2022/12/04 06:05:43;;;;;;;;;;;13.10;93.10;;;;;;4590592;19;19930;-25
2022/12/04 06:07:14;;;;;;;;;;;13.10;93.10;;;;;;4592106;19;19918;-25
2022/12/04 06:08:45;;;;;;;;;;;13.10;93.10;;;;;;4589794;19;19919;-23
2022/12/04 06:10:16;;;;;;;;;;;13.10;93.10;;;;;;4591707;19;19919;-22
2022/12/04 06:11:47;;;;;;;;;;;13.10;93.10;;;;;;4590090;19;19931;-22
2022/12/04 06:13:18;;;;;;;;;;;13.10;93.20;;;;;;4591031;19;19910;-23
2022/12/04 06:14:49;;;;;;;;;;;13.10;93.20;;;;;;4590302;19;19933;-22
2022/12/04 06:16:22;;;;;;;;;;;13.10;93.20;;;;;;4589820;19;19970;-23
2022/12/04 06:17:53;;;;;;;;;;;13.10;93.20;;;;;;4590798;19;19921;-22
2022/12/04 06:19:24;;;;;;;;;;;13.10;93.20;;;;;;4590182;19;19944;-22
2022/12/04 06:20:58;;;;;;;;;;;13.10;93.20;;;;;;4590021;19;20690;-21
2022/12/04 06:22:29;;;;;;;;;;;13.10;93.20;;;;;;4590053;19;20345;-22
2022/12/04 06:24:00;;;;;;;;;;;13.10;93.20;;;;;;4590703;19;19932;-22
2022/12/04 06:25:31;;;;;;;;;;;13.10;93.20;;;;;;4592869;19;20326;-23
2022/12/04 06:27:02;;;;;;;;;;;13.10;93.20;;;;;;4596141;19;19958;-22
2022/12/04 06:28:33;;;;;;;;;;;13.10;93.10;;;;;;4595285;19;19921;-23
2022/12/04 06:30:05;;;;;;;;;;;13.10;93.20;;;;;;4594209;19;19922;-24
2022/12/04 06:31:36;;;;;;;;;;;13.10;93.30;;;;;;4594562;19;20331;-23
2022/12/04 06:33:07;;;;;;;;;;;13.00;93.10;;;;;;4594726;19;19918;-22
2022/12/04 06:34:38;;;;;;;;;;;13.10;93.20;;;;;;4593267;19;19923;-22
2022/12/04 06:36:14;;;;;;;;;;;13.10;93.10;;;;;;4593170;19;19982;-22
2022/12/04 06:37:44;;;;;;;;;;;13.10;93.10;;;;;;4594176;19;19919;-24
2022/12/04 06:39:15;;;;;;;;;;;13.00;93.10;;;;;;4593913;19;19922;-23
2022/12/04 06:40:47;;;;;;;;;;;13.00;93.10;;;;;;4595912;19;19919;-22
2022/12/04 06:42:18;;;;;;;;;;;13.10;93.10;;;;;;4594404;19;19926;-24
2022/12/04 06:43:50;;;;;;;;;;;13.10;93.10;;;;;;4595729;19;19915;-24
2022/12/04 06:45:22;;;;;;;;;;;13.10;93.10;;;;;;4593829;19;19927;-22
2022/12/04 06:46:53;;;;;;;;;;;13.10;93.10;;;;;;4595033;19;19910;-22
2022/12/04 06:48:24;;;;;;;;;;;13.10;93.00;;;;;;4594456;19;19938;-22
2022/12/04 06:49:55;;;;;;;;;;;13.20;93.10;;;;;;4593481;19;19938;-23
2022/12/04 06:51:27;;;;;;;;;;;13.20;93.10;;;;;;4594705;19;19915;-22
2022/12/04 06:52:58;;;;;;;;;;;13.10;93.10;;;;;;4594206;19;19948;-21
2022/12/04 06:54:29;;;;;;;;;;;13.10;93.40;;;;;;4594602;19;19923;-26
2022/12/04 06:56:01;;;;;;;;;;;13.10;93.10;;;;;;4594639;19;19947;-23
2022/12/04 06:57:32;;;;;;;;;;;13.20;93.20;;;;;;4592868;19;19918;-24
2022/12/04 06:59:03;;;;;;;;;;;13.20;93.20;;;;;;4593945;19;19974;-25
2022/12/04 07:00:34;;;;;;;;;;;13.20;93.20;;;;;;4592147;19;19923;-23
2022/12/04 07:02:06;;;;;;;;;;;13.10;93.20;;;;;;4592757;19;20310;-24
2022/12/04 07:03:37;;;;;;;;;;;13.10;93.20;;;;;;4595161;19;19975;-22
2022/12/04 07:05:09;;;;;;;;;;;13.10;93.20;;;;;;4593390;19;19934;-23
2022/12/04 07:06:40;;;;;;;;;;;13.10;93.20;;;;;;4594031;19;19939;-23
2022/12/04 07:08:11;;;;;;;;;;;13.20;93.20;;;;;;4594245;19;19974;-22
2022/12/04 07:09:43;;;;;;;;;;;13.20;93.20;;;;;;4593796;19;20258;-22
2022/12/04 07:11:14;;;;;;;;;;;13.20;93.20;;;;;;4593896;19;19930;-24
2022/12/04 07:12:45;;;;;;;;;;;13.20;93.20;;;;;;4594564;19;19925;-23
2022/12/04 07:14:16;;;;;;;;;;;13.20;93.20;;;;;;4594814;19;19937;-22
2022/12/04 07:15:47;;;;;;;;;;;13.20;93.20;;;;;;4590721;19;19998;-22
2022/12/04 07:17:19;;;;;;;;;;;13.20;93.20;;;;;;4593227;19;19939;-22
2022/12/04 07:18:52;;;;;;;;;;;13.20;93.20;;;;;;4593129;19;19964;-23
2022/12/04 07:20:23;;;;;;;;;;;13.20;93.20;;;;;;4595733;19;19926;-22
2022/12/04 07:21:54;;;;;;;;;;;13.20;93.20;;;;;;4592144;19;19938;-22
2022/12/04 07:23:25;;;;;;;;;;;13.20;93.20;;;;;;4593249;19;19923;-23
2022/12/04 07:24:56;;;;;;;;;;;13.20;93.20;;;;;;4594026;19;19946;-22
2022/12/04 07:26:28;;;;;;;;;;;13.20;93.20;;;;;;4594895;19;20296;-23
2022/12/04 07:27:59;;;;;;;;;;;13.20;93.20;;;;;;4592766;19;19947;-23
2022/12/04 07:29:30;;;;;;;;;;;13.30;93.20;;;;;;4592638;19;19919;-24
2022/12/04 07:31:04;;;;;;;;;;;13.30;93.20;;;;;;4593811;19;20266;-23
2022/12/04 07:32:35;;;;;;;;;;;13.20;93.20;;;;;;4592483;19;19926;-25
2022/12/04 07:34:06;;;;;;;;;;;13.20;93.20;;;;;;4594239;19;19939;-22
2022/12/04 07:35:38;;;;;;;;;;;13.30;93.20;;;;;;4596149;19;20298;-23
2022/12/04 07:37:09;;;;;;;;;;;13.20;93.20;;;;;;4595110;19;19919;-22
2022/12/04 07:38:40;;;;;;;;;;;13.30;93.20;;;;;;4593516;19;20005;-23
2022/12/04 07:40:11;;;;;;;;;;;13.30;93.20;;;;;;4595577;19;19936;-23
2022/12/04 07:41:42;;;;;;;;;;;13.30;93.20;;;;;;4594479;19;19915;-23
2022/12/04 07:43:13;;;;;;;;;;;13.30;93.10;;;;;;4596782;19;19932;-23
2022/12/04 07:44:45;;;;;;;;;;;13.40;93.10;;;;;;4595541;19;19918;-22
2022/12/04 07:46:19;;;;;;;;;;;13.40;93.00;;;;;;4594887;19;20243;-22
2022/12/04 07:47:50;;;;;;;;;;;13.50;93.00;;;;;;4595145;19;19926;-23
2022/12/04 07:49:21;;;;;;;;;;;13.50;92.90;;;;;;4594354;19;19978;-23
2022/12/04 07:51:00;;;;;;;;;;;13.50;92.90;;;;;;4594929;19;19922;-22
2022/12/04 07:52:38;;;;;;;;;;;13.60;92.90;;;;;;4594336;19;19915;-27
2022/12/04 07:54:09;;;;;;;;;;;13.60;92.80;;;;;;4595776;19;19938;-22
2022/12/04 07:55:40;;;;;;;;;;;13.60;92.80;;;;;;4590764;19;19919;-22
2022/12/04 07:57:11;;;;;;;;;;;13.60;92.80;;;;;;4595450;19;19926;-23
2022/12/04 07:58:42;;;;;;;;;;;13.60;92.80;;;;;;4592388;19;19930;-24
2022/12/04 08:00:15;;;;;;;;;;;13.60;92.80;;;;;;4593721;19;19915;-23
2022/12/04 08:01:46;;;;;;;;;;;13.70;92.80;;;;;;4593662;19;19919;-22
2022/12/04 08:03:20;;;;;;;;;;;13.70;92.90;;;;;;4595689;19;19914;-22
2022/12/04 08:04:52;;;;;;;;;;;13.70;92.90;;;;;;4593255;19;19922;-22
2022/12/04 08:06:23;;;;;;;;;;;13.70;92.90;;;;;;4592900;19;19943;-23
2022/12/04 08:07:55;;;;;;;;;;;13.60;92.90;;;;;;4593046;19;19953;-22
2022/12/04 08:09:26;;;;;;;;;;;13.60;92.90;;;;;;4593251;19;20275;-22
2022/12/04 08:10:57;;;;;;;;;;;13.70;92.80;;;;;;4593327;19;19927;-22
2022/12/04 08:12:30;;;;;;;;;;;13.80;92.80;;;;;;4592680;19;19924;-23
2022/12/04 08:14:03;;;;;;;;;;;13.70;92.80;;;;;;4592867;19;20056;-23
2022/12/04 08:15:34;;;;;;;;;;;13.70;92.90;;;;;;4592041;19;19938;-23
2022/12/04 08:17:06;;;;;;;;;;;13.60;92.90;;;;;;4593160;19;19919;-22
2022/12/04 08:18:37;;;;;;;;;;;13.60;92.90;;;;;;4592484;19;19915;-26
2022/12/04 08:20:08;;;;;;;;;;;13.60;92.90;;;;;;4592067;19;20328;-24
2022/12/04 08:21:39;;;;;;;;;;;13.60;93.00;;;;;;4593204;19;19919;-23
2022/12/04 08:23:11;;;;;;;;;;;13.50;93.00;;;;;;4594029;19;19925;-22
2022/12/04 08:24:41;;;;;;;;;;;13.50;93.00;;;;;;4594512;19;19919;-23
2022/12/04 08:26:13;;;;;;;;;;;13.50;93.00;;;;;;4595008;19;19978;-24
2022/12/04 08:27:45;;;;;;;;;;;13.60;93.10;;;;;;4591840;19;19943;-23
2022/12/04 08:29:17;;;;;;;;;;;13.50;93.00;;;;;;4593146;19;19922;-22
2022/12/04 08:30:48;;;;;;;;;;;13.50;93.10;;;;;;4592683;19;19919;-23
2022/12/04 08:32:19;;;;;;;;;;;13.40;93.10;;;;;;4591631;19;19975;-23
2022/12/04 08:33:52;;;;;;;;;;;13.40;93.20;;;;;;4592909;19;20348;-25
2022/12/04 08:35:23;;;;;;;;;;;13.40;93.20;;;;;;4592949;19;19974;-26
2022/12/04 08:36:54;;;;;;;;;;;13.50;93.40;;;;;;4594256;19;19930;-22
2022/12/04 08:38:27;;;;;;;;;;;13.50;93.20;;;;;;4592724;19;19986;-23
2022/12/04 08:39:58;;;;;;;;;;;13.50;93.20;;;;;;4592988;19;19918;-23
2022/12/04 08:41:29;;;;;;;;;;;13.50;93.20;;;;;;4593942;19;19993;-25
2022/12/04 08:43:00;;;;;;;;;;;13.50;93.40;;;;;;4595144;19;19925;-23
2022/12/04 08:44:32;;;;;;;;;;;13.60;93.20;;;;;;4592945;19;19930;-22
2022/12/04 08:46:04;;;;;;;;;;;13.50;93.20;;;;;;4593040;19;20282;-23
2022/12/04 08:47:35;;;;;;;;;;;13.60;93.20;;;;;;4591854;19;20336;-24
2022/12/04 08:49:06;;;;;;;;;;;13.60;93.20;;;;;;4592227;19;20241;-23
2022/12/04 08:50:42;;;;;;;;;;;13.60;93.20;;;;;;4592872;19;19924;-24
2022/12/04 08:52:13;;;;;;;;;;;13.60;93.20;;;;;;4591319;19;19915;-26
2022/12/04 08:53:45;;;;;;;;;;;13.60;93.30;;;;;;4592347;19;19978;-23
2022/12/04 08:55:17;;;;;;;;;;;13.60;93.30;;;;;;4591356;19;19956;-23
2022/12/04 08:56:48;;;;;;;;;;;13.60;93.30;;;;;;4592091;19;19942;-23
2022/12/04 08:58:19;;;;;;;;;;;13.60;93.30;;;;;;4591271;19;19932;-22
2022/12/04 08:59:50;;;;;;;;;;;13.60;93.30;;;;;;4591746;19;19919;-23
2022/12/04 09:01:21;;;;;;;;;;;13.60;93.30;;;;;;4592441;19;20298;-22
2022/12/04 09:02:52;;;;;;;;;;;13.60;93.40;;;;;;4592765;19;19922;-25
2022/12/04 09:04:23;;;;;;;;;;;13.60;93.30;;;;;;4592596;19;19918;-22
2022/12/04 09:05:56;;;;;;;;;;;13.60;93.40;;;;;;4593002;19;19942;-22
2022/12/04 09:07:28;;;;;;;;;;;13.50;93.40;;;;;;4593628;19;19978;-23
2022/12/04 09:09:00;;;;;;;;;;;13.60;93.40;;;;;;4592450;19;19915;-22
2022/12/04 09:10:32;;;;;;;;;;;13.50;93.60;;;;;;4590972;19;19927;-23
2022/12/04 09:12:04;;;;;;;;;;;13.50;93.40;;;;;;4590893;19;20447;-22